createdAt,value
2022-10-13T00:02:28.075Z,98540.56
2022-10-13T00:07:30.439Z,98535.09
2022-10-13T00:12:35.984Z,98538.28
2022-10-13T00:17:41.903Z,98549.41
2022-10-13T00:22:44.306Z,98548.34
2022-10-13T00:27:46.686Z,98546.34
2022-10-13T00:32:49.106Z,98553.38
2022-10-13T00:37:53.381Z,98546.03
2022-10-13T00:42:55.731Z,98543.69
2022-10-13T00:48:01.597Z,98539.94
2022-10-13T00:53:05.886Z,98532.13
2022-10-13T00:58:12.560Z,98539.03
2022-10-13T01:03:15.311Z,98533.78
2022-10-13T01:08:19.967Z,98529.84
2022-10-13T01:13:32.655Z,98527.84
2022-10-13T01:19:19.848Z,98532.59
2022-10-13T01:24:56.309Z,98523.03
2022-10-13T01:30:20.931Z,98526.16
2022-10-13T01:35:38.456Z,98521.31
2022-10-13T01:41:05.215Z,98510.34
2022-10-13T01:46:12.386Z,98508.03
2022-10-13T01:51:18.922Z,98501.84
2022-10-13T01:56:22.866Z,98502.69
2022-10-13T02:01:43.528Z,98507.69
2022-10-13T02:07:00.165Z,98499.69
2022-10-13T02:12:08.549Z,98506.09
2022-10-13T02:17:11.515Z,98499.97
2022-10-13T02:22:17.879Z,98491.63
2022-10-13T02:27:21.571Z,98501.28
2022-10-13T02:32:24.220Z,98494.72
2022-10-13T02:37:28.634Z,98498.16
2022-10-13T02:42:30.973Z,98504.47
2022-10-13T02:47:36.975Z,98490.41
2022-10-13T02:52:39.612Z,98496.97
2022-10-13T02:57:42.008Z,98487.69
2022-10-13T03:02:44.703Z,98494.91
2022-10-13T03:07:47.126Z,98486.72
2022-10-13T03:12:49.897Z,98489.19
2022-10-13T03:17:52.488Z,98483.91
2022-10-13T03:22:54.936Z,98481.53
2022-10-13T03:27:57.291Z,98469.31
2022-10-13T03:32:59.620Z,98465.81
2022-10-13T03:38:02.246Z,98456.00
2022-10-13T03:43:05.631Z,98449.81
2022-10-13T03:48:07.986Z,98448.59
2022-10-13T03:53:11.404Z,98454.28
2022-10-13T03:58:15.099Z,98464.22
2022-10-13T04:03:18.556Z,98464.56
2022-10-13T04:08:21.093Z,98471.59
2022-10-13T04:13:23.615Z,98467.16
2022-10-13T04:18:27.400Z,98474.81
2022-10-13T04:23:30.003Z,98459.50
2022-10-13T04:28:37.348Z,98456.56
2022-10-13T04:33:39.942Z,98463.50
2022-10-13T04:38:43.899Z,98455.25
2022-10-13T04:43:50.714Z,98467.91
2022-10-13T04:48:54.843Z,98463.00
2022-10-13T04:54:01.131Z,98447.56
2022-10-13T04:59:05.905Z,98443.50
2022-10-13T05:04:09.760Z,98435.69
2022-10-13T05:09:16.328Z,98430.44
2022-10-13T05:14:18.808Z,98432.41
2022-10-13T05:19:21.551Z,98441.97
2022-10-13T05:24:36.369Z,98446.63
2022-10-13T05:29:39.495Z,98444.44
2022-10-13T05:34:41.840Z,98447.94
2022-10-13T05:39:48.631Z,98458.25
2022-10-13T05:44:52.148Z,98456.53
2022-10-13T05:49:55.778Z,98460.63
2022-10-13T05:55:02.991Z,98459.41
2022-10-13T06:00:15.541Z,98458.28
2022-10-13T06:05:20.355Z,98439.66
2022-10-13T06:10:26.407Z,98442.88
2022-10-13T06:15:28.891Z,98436.53
2022-10-13T06:20:32.027Z,98438.84
2022-10-13T06:25:34.477Z,98435.44
2022-10-13T06:30:38.788Z,98450.78
2022-10-13T06:35:41.365Z,98450.44
2022-10-13T06:40:47.430Z,98452.06
2022-10-13T06:45:49.916Z,98455.88
2022-10-13T06:50:52.621Z,98447.72
2022-10-13T06:56:02.639Z,98428.56
2022-10-13T07:01:06.131Z,98432.97
2022-10-13T07:06:08.904Z,98438.38
2022-10-13T07:11:16.192Z,98442.72
2022-10-13T07:16:23.030Z,98449.59
2022-10-13T07:21:25.425Z,98441.84
2022-10-13T07:26:27.873Z,98438.06
2022-10-13T07:31:30.356Z,98439.63
2022-10-13T07:36:33.876Z,98434.63
2022-10-13T07:41:37.472Z,98438.94
2022-10-13T07:46:39.884Z,98437.44
2022-10-13T07:51:42.418Z,98445.56
2022-10-13T07:56:45.514Z,98436.91
2022-10-13T08:01:48.139Z,98422.44
2022-10-13T08:06:50.782Z,98423.00
2022-10-13T08:11:58.835Z,98423.63
2022-10-13T08:17:02.949Z,98413.16
2022-10-13T08:22:09.174Z,98412.88
2022-10-13T08:27:18.011Z,98407.28
2022-10-13T08:32:22.058Z,98410.75
2022-10-13T08:37:25.093Z,98404.09
2022-10-13T08:42:27.780Z,98407.16
2022-10-13T08:47:52.344Z,98406.81
2022-10-13T08:52:58.001Z,98395.44
2022-10-13T08:58:02.931Z,98388.00
2022-10-13T09:03:23.514Z,98402.97
2022-10-13T09:08:30.640Z,98407.97
2022-10-13T09:13:33.519Z,98398.56
2022-10-13T09:18:37.330Z,98403.97
2022-10-13T09:23:42.926Z,98397.19
2022-10-13T09:28:45.475Z,98397.94
2022-10-13T09:34:01.846Z,98392.69
2022-10-13T09:40:32.263Z,98395.22
2022-10-13T09:45:34.804Z,98400.91
2022-10-13T09:50:37.768Z,98405.31
2022-10-13T09:55:40.243Z,98393.25
2022-10-13T10:00:45.869Z,98396.16
2022-10-13T10:05:51.925Z,98385.88
2022-10-13T10:10:55.481Z,98389.38
2022-10-13T10:16:12.579Z,98383.25
2022-10-13T10:21:23.940Z,98388.59
2022-10-13T10:27:06.614Z,98392.03
2022-10-13T10:32:09.020Z,98381.41
2022-10-13T10:37:34.612Z,98378.44
2022-10-13T10:42:43.037Z,98370.47
2022-10-13T10:47:50.645Z,98365.94
2022-10-13T10:53:06.399Z,98362.38
2022-10-13T10:58:24.537Z,98360.25
2022-10-13T11:03:57.277Z,98346.63
2022-10-13T11:09:00.140Z,98336.06
2022-10-13T11:14:24.939Z,98320.53
2022-10-13T11:19:33.271Z,98322.81
2022-10-13T11:24:41.635Z,98317.75
2022-10-13T11:29:46.742Z,98317.75
2022-10-13T11:35:05.891Z,98307.31
2022-10-13T11:40:17.017Z,98296.66
2022-10-13T11:45:47.188Z,98296.72
2022-10-13T11:50:58.429Z,98292.78
2022-10-13T11:56:03.891Z,98281.41
2022-10-13T12:01:12.887Z,98278.34
2022-10-13T12:06:33.468Z,98263.00
2022-10-13T12:11:39.343Z,98255.53
2022-10-13T12:22:18.710Z,98247.41
2022-10-13T12:27:22.294Z,98234.81
2022-10-13T12:32:31.215Z,98223.13
2022-10-13T12:37:34.646Z,98223.06
2022-10-13T12:42:39.071Z,98212.38
2022-10-13T12:47:44.445Z,98209.50
2022-10-13T12:52:47.405Z,98203.38
2022-10-13T12:57:51.838Z,98198.09
2022-10-13T13:02:58.598Z,98190.41
2022-10-13T13:08:01.609Z,98196.47
2022-10-13T13:13:15.221Z,98198.75
2022-10-13T13:18:36.831Z,98204.56
2022-10-13T13:23:39.543Z,98189.00
2022-10-13T13:28:48.905Z,98193.84
2022-10-13T13:33:51.805Z,98182.25
2022-10-13T13:38:55.176Z,98191.72
2022-10-13T13:43:58.533Z,98187.06
2022-10-13T13:49:02.174Z,98188.09
2022-10-13T13:54:05.184Z,98182.94
2022-10-13T13:59:07.741Z,98188.00
2022-10-13T14:04:10.195Z,98179.00
2022-10-13T14:09:12.596Z,98175.84
2022-10-13T14:14:15.260Z,98169.38
2022-10-13T14:19:17.786Z,98165.41
2022-10-13T14:24:21.001Z,98174.72
2022-10-13T14:29:23.946Z,98166.66
2022-10-13T14:34:26.443Z,98163.03
2022-10-13T14:39:28.862Z,98170.13
2022-10-13T14:44:31.218Z,98164.69
2022-10-13T14:49:33.562Z,98172.06
2022-10-13T14:54:36.016Z,98177.56
2022-10-13T14:59:39.220Z,98185.00
2022-10-13T15:04:41.584Z,98177.59
2022-10-13T15:09:53.173Z,98176.00
2022-10-13T15:15:06.604Z,98191.38
2022-10-13T15:20:09.532Z,98198.91
2022-10-13T15:25:11.996Z,98189.25
2022-10-13T15:30:14.432Z,98192.03
2022-10-13T15:35:17.000Z,98196.59
2022-10-13T15:40:19.367Z,98190.50
2022-10-13T15:45:21.967Z,98183.97
2022-10-13T15:50:27.210Z,98191.19
2022-10-13T15:55:29.819Z,98187.56
2022-10-13T16:00:32.505Z,98187.72
2022-10-13T16:05:34.883Z,98187.72
2022-10-13T16:10:41.115Z,98198.25
2022-10-13T16:15:43.564Z,98196.31
2022-10-13T16:20:45.948Z,98189.81
2022-10-13T16:25:48.352Z,98215.53
2022-10-13T16:30:50.837Z,98196.84
2022-10-13T16:36:03.623Z,98211.72
2022-10-13T16:41:07.819Z,98198.75
2022-10-13T16:46:15.570Z,98195.09
2022-10-13T16:51:23.737Z,98188.06
2022-10-13T16:56:27.699Z,98183.16
2022-10-13T17:01:30.947Z,98188.63
2022-10-13T17:06:33.661Z,98193.19
2022-10-13T17:11:37.249Z,98197.53
2022-10-13T17:16:40.730Z,98196.78
2022-10-13T17:21:44.136Z,98198.34
2022-10-13T17:26:48.893Z,98181.00
2022-10-13T17:31:51.865Z,98180.66
2022-10-13T17:36:59.387Z,98184.94
2022-10-13T17:42:01.791Z,98188.47
2022-10-13T17:47:04.327Z,98192.00
2022-10-13T17:52:06.714Z,98197.19
2022-10-13T17:57:09.365Z,98201.28
2022-10-13T18:02:12.076Z,98193.34
2022-10-13T18:07:14.568Z,98210.28
2022-10-13T18:12:17.084Z,98207.59
2022-10-13T18:17:19.716Z,98199.34
2022-10-13T18:22:22.521Z,98186.66
2022-10-13T18:27:26.869Z,98192.50
2022-10-13T18:32:29.271Z,98203.50
2022-10-13T18:37:31.673Z,98199.50
2022-10-13T18:42:34.018Z,98204.97
2022-10-13T18:47:36.465Z,98202.78
2022-10-13T18:52:40.064Z,98191.44
2022-10-13T18:57:42.461Z,98195.84
2022-10-13T19:02:44.788Z,98189.28
2022-10-13T19:07:47.187Z,98190.53
2022-10-13T19:12:49.995Z,98192.66
2022-10-13T19:17:55.631Z,98195.84
2022-10-13T19:22:58.118Z,98190.53
2022-10-13T19:28:00.512Z,98188.09
2022-10-13T19:33:03.110Z,98190.84
2022-10-13T19:38:05.748Z,98194.03
2022-10-13T19:43:08.912Z,98192.03
2022-10-13T19:48:11.538Z,98195.63
2022-10-13T19:53:14.877Z,98204.69
2022-10-13T19:58:17.935Z,98206.16
2022-10-13T20:03:20.350Z,98211.03
2022-10-13T20:08:25.349Z,98214.28
2022-10-13T20:13:27.985Z,98207.84
2022-10-13T20:18:37.165Z,98207.13
2022-10-13T20:23:40.998Z,98216.09
2022-10-13T20:28:45.486Z,98218.13
2022-10-13T20:33:49.685Z,98229.72
2022-10-13T20:38:54.412Z,98225.81
2022-10-13T20:44:00.039Z,98219.72
2022-10-13T20:49:10.944Z,98227.72
2022-10-13T20:54:15.714Z,98233.50
2022-10-13T20:59:18.163Z,98223.25
2022-10-13T21:04:20.773Z,98217.44
2022-10-13T21:09:23.663Z,98217.09
2022-10-13T21:14:26.347Z,98219.50
2022-10-13T21:19:29.417Z,98215.22
2022-10-13T21:24:32.134Z,98218.00
2022-10-13T21:29:34.486Z,98218.94
2022-10-13T21:34:36.832Z,98214.75
2022-10-13T21:39:39.233Z,98220.41
2022-10-13T21:44:41.616Z,98219.41
2022-10-13T21:49:43.989Z,98231.00
2022-10-13T21:54:48.938Z,98221.53
2022-10-13T21:59:51.342Z,98228.53
2022-10-13T22:04:54.258Z,98222.50
2022-10-13T22:09:56.673Z,98225.41
2022-10-13T22:14:59.103Z,98229.59
2022-10-13T22:20:01.450Z,98233.59
2022-10-13T22:25:04.206Z,98230.28
2022-10-13T22:30:08.512Z,98228.22
2022-10-13T22:35:10.871Z,98225.38
2022-10-13T22:40:13.295Z,98220.72
2022-10-13T22:45:15.713Z,98229.47
2022-10-13T22:50:19.501Z,98229.22
2022-10-13T22:55:22.234Z,98220.72
2022-10-13T23:00:24.683Z,98221.19
2022-10-13T23:05:27.051Z,98224.19
2022-10-13T23:10:29.459Z,98223.63
2022-10-13T23:15:32.901Z,98224.50
2022-10-13T23:20:38.778Z,98218.56
2022-10-13T23:25:41.261Z,98212.47
2022-10-13T23:30:43.668Z,98218.84
2022-10-13T23:35:53.222Z,98217.66
2022-10-13T23:40:56.081Z,98224.59
2022-10-13T23:45:58.650Z,98216.72
2022-10-13T23:51:07.944Z,98214.38
2022-10-13T23:56:11.597Z,98203.63
